Time;durP1;ratioP1;P1;durP2;ratioP2;P2;SDS_P1;SDS_P2;PMS_P1;PMS_P2;Temp;Humidity;BMP_temperature;BMP_pressure;BME280_temperature;BME280_humidity;BME280_pressure;Samples;Min_cycle;Max_cycle;Signal;HPM_P1;HPM_P2
2022/12/20 00:00:50;;;;;;;20.33;14.20;;;;;;;3.58;100.00;98724.16;5091808;28;20210;-80
2022/12/20 00:03:17;;;;;;;20.70;13.67;;;;;;;3.56;100.00;98721.56;5091942;28;20238;-80
2022/12/20 00:05:43;;;;;;;26.70;15.83;;;;;;;3.55;100.00;98713.81;5092028;28;20243;-80
2022/12/20 00:08:12;;;;;;;20.93;13.93;;;;;;;3.54;100.00;98714.72;5092154;28;20227;-80
2022/12/20 00:10:41;;;;;;;22.70;15.10;;;;;;;3.50;100.00;98706.13;5091878;28;20223;-79
2022/12/20 00:13:08;;;;;;;19.17;13.77;;;;;;;3.63;100.00;98712.66;5092001;28;20605;-79
2022/12/20 00:15:35;;;;;;;20.50;14.03;;;;;;;3.57;100.00;98707.63;5091818;28;20202;-79
2022/12/20 00:18:01;;;;;;;20.77;14.37;;;;;;;3.57;100.00;98691.94;5092377;28;20229;-79
2022/12/20 00:20:30;;;;;;;20.23;13.63;;;;;;;3.53;100.00;98695.56;5091916;28;20207;-79
2022/12/20 00:22:57;;;;;;;21.07;14.07;;;;;;;3.55;100.00;98693.75;5091900;28;20236;-80
2022/12/20 00:25:24;;;;;;;19.43;14.67;;;;;;;3.63;100.00;98685.66;5091935;28;20214;-79
2022/12/20 00:27:51;;;;;;;21.83;14.20;;;;;;;3.61;100.00;98677.03;5091826;28;20237;-80
2022/12/20 00:30:18;;;;;;;19.67;14.27;;;;;;;3.70;100.00;98682.78;5091608;28;20208;-80
2022/12/20 00:32:45;;;;;;;20.53;14.10;;;;;;;3.78;100.00;98659.03;5092123;28;20223;-80
2022/12/20 00:35:13;;;;;;;21.37;13.67;;;;;;;3.76;100.00;98653.84;5092100;28;20207;-80
2022/12/20 00:37:39;;;;;;;19.23;12.97;;;;;;;3.64;100.00;98656.88;5091555;28;20594;-79
2022/12/20 00:40:07;;;;;;;20.20;13.07;;;;;;;3.50;100.00;98668.69;5091567;28;20210;-79
2022/12/20 00:42:35;;;;;;;22.03;14.30;;;;;;;3.41;100.00;98668.97;5091751;28;20238;-79
2022/12/20 00:45:02;;;;;;;20.17;13.43;;;;;;;3.36;100.00;98670.88;5091656;28;20229;-79
2022/12/20 00:47:29;;;;;;;18.90;13.57;;;;;;;3.37;100.00;98676.03;5091905;28;20206;-82
2022/12/20 00:49:55;;;;;;;23.90;13.97;;;;;;;3.33;100.00;98686.66;5091567;28;20203;-80
2022/12/20 00:52:22;;;;;;;18.93;13.27;;;;;;;3.30;100.00;98687.59;5091920;28;20694;-81
2022/12/20 00:54:48;;;;;;;19.50;13.63;;;;;;;3.35;100.00;98685.69;5091750;28;20210;-80
2022/12/20 00:57:15;;;;;;;20.30;13.27;;;;;;;3.35;100.00;98696.16;5092007;28;20554;-80
2022/12/20 00:59:42;;;;;;;21.53;14.47;;;;;;;3.41;100.00;98695.94;5091459;28;20289;-82
2022/12/20 01:02:09;;;;;;;22.10;15.53;;;;;;;3.56;100.00;98674.53;5091958;28;20226;-81
2022/12/20 01:04:35;;;;;;;21.37;13.43;;;;;;;3.57;100.00;98675.41;5091701;28;20203;-79
2022/12/20 01:07:02;;;;;;;20.53;13.03;;;;;;;3.53;100.00;98669.44;5091822;28;20213;-80
2022/12/20 01:09:28;;;;;;;20.83;14.43;;;;;;;3.53;100.00;98676.41;5091093;28;20223;-79
2022/12/20 01:11:55;;;;;;;18.70;12.73;;;;;;;3.53;100.00;98685.09;5091609;28;20226;-80
2022/12/20 01:14:21;;;;;;;21.07;13.90;;;;;;;3.53;100.00;98679.00;5091923;28;20211;-80
2022/12/20 01:16:49;;;;;;;20.43;14.33;;;;;;;3.53;100.00;98685.09;5091721;28;20213;-79
2022/12/20 01:19:18;;;;;;;23.53;14.97;;;;;;;3.57;100.00;98686.72;5091498;28;20573;-80
2022/12/20 01:21:44;;;;;;;19.33;14.10;;;;;;;3.55;100.00;98688.50;5091491;28;20231;-79
2022/12/20 01:24:11;;;;;;;20.80;15.23;;;;;;;3.62;100.00;98697.84;5091448;28;20191;-80
2022/12/20 01:26:38;;;;;;;19.50;13.43;;;;;;;3.63;100.00;98696.97;5091389;28;20596;-80
2022/12/20 01:29:04;;;;;;;20.30;13.03;;;;;;;3.66;100.00;98696.88;5091280;28;20226;-80
2022/12/20 01:31:31;;;;;;;18.27;12.63;;;;;;;3.65;100.00;98694.28;5091493;28;20268;-80
2022/12/20 01:33:59;;;;;;;20.17;13.60;;;;;;;3.64;100.00;98692.59;5091311;28;20229;-80
2022/12/20 01:36:28;;;;;;;19.17;13.63;;;;;;;3.62;100.00;98676.94;5091493;28;20211;-80
2022/12/20 01:38:56;;;;;;;20.17;14.00;;;;;;;3.63;100.00;98676.06;5091021;28;20222;-81
2022/12/20 01:41:23;;;;;;;21.33;13.90;;;;;;;3.64;100.00;98677.78;5091466;28;20214;-81
2022/12/20 01:43:52;;;;;;;20.47;13.90;;;;;;;3.56;100.00;98674.53;5091549;28;20879;-79
2022/12/20 01:46:20;;;;;;;21.07;13.90;;;;;;;3.48;100.00;98676.56;5091425;28;20210;-79
2022/12/20 01:48:52;;;;;;;22.40;14.37;;;;;;;3.45;100.00;98671.44;5091560;28;20210;-79
2022/12/20 01:51:22;;;;;;;19.00;13.83;;;;;;;3.35;100.00;98675.25;5095038;28;20207;-79
2022/12/20 01:53:54;;;;;;;20.97;13.97;;;;;;;3.29;100.00;98670.22;5095291;28;20591;-79
2022/12/20 01:56:21;;;;;;;19.30;13.73;;;;;;;3.29;100.00;98674.56;5099397;28;20217;-79
2022/12/20 01:58:53;;;;;;;19.80;13.67;;;;;;;3.30;100.00;98682.38;5099718;28;20237;-79
2022/12/20 02:01:21;;;;;;;21.63;14.30;;;;;;;3.37;100.00;98672.59;5098376;28;20247;-79
2022/12/20 02:03:48;;;;;;;20.37;14.80;;;;;;;3.43;100.00;98688.06;5099140;28;20217;-80
2022/12/20 02:06:17;;;;;;;19.97;13.63;;;;;;;3.45;100.00;98670.56;5100220;28;20219;-79
2022/12/20 02:08:48;;;;;;;19.43;13.97;;;;;;;3.46;100.00;98657.47;5098056;28;20203;-79
2022/12/20 02:11:32;;;;;;;24.63;14.70;;;;;;;3.37;100.00;98652.53;5094534;28;20211;-79
2022/12/20 02:14:13;;;;;;;21.67;14.43;;;;;;;3.33;100.00;98650.94;5094776;28;20203;-79
2022/12/20 02:16:46;;;;;;;21.03;13.80;;;;;;;3.33;100.00;98656.16;5094262;28;20220;-80
2022/12/20 02:19:27;;;;;;;19.93;13.90;;;;;;;3.36;100.00;98650.00;5094061;28;20232;-80
2022/12/20 02:22:03;;;;;;;21.37;14.40;;;;;;;3.35;100.00;98651.72;5094163;28;20237;-80
2022/12/20 02:24:58;;;;;;;20.77;14.10;;;;;;;3.36;100.00;98658.66;5094158;28;20210;-79
2022/12/20 02:27:48;;;;;;;18.57;14.27;;;;;;;3.41;100.00;98645.44;5094099;28;20214;-80
2022/12/20 02:30:18;;;;;;;20.17;14.30;;;;;;;3.37;100.00;98642.06;5093694;28;20213;-80
2022/12/20 02:32:50;;;;;;;20.43;14.33;;;;;;;3.31;100.00;98636.22;5093800;28;20617;-79
2022/12/20 02:35:21;;;;;;;21.17;14.00;;;;;;;3.26;100.00;98633.75;5094039;28;20214;-80
2022/12/20 02:37:50;;;;;;;22.83;15.17;;;;;;;3.17;100.00;98638.44;5093944;28;20211;-79
2022/12/20 02:40:22;;;;;;;22.93;15.07;;;;;;;3.12;100.00;98642.94;5096566;28;20215;-79
2022/12/20 02:42:51;;;;;;;20.47;15.30;;;;;;;3.09;100.00;98643.88;5099258;28;20231;-79
2022/12/20 02:45:22;;;;;;;22.10;13.70;;;;;;;3.08;100.00;98639.56;5095549;28;20206;-79
2022/12/20 02:47:52;;;;;;;22.53;14.30;;;;;;;3.03;100.00;98646.69;5094513;28;20702;-80
2022/12/20 02:50:22;;;;;;;24.60;15.47;;;;;;;3.04;100.00;98622.28;5093349;28;20686;-79
2022/12/20 02:52:50;;;;;;;18.90;13.10;;;;;;;2.98;100.00;98630.31;5093684;28;20226;-80
2022/12/20 02:55:18;;;;;;;19.13;13.23;;;;;;;2.94;100.00;98639.13;5093468;28;20202;-79
2022/12/20 02:57:50;;;;;;;20.73;14.33;;;;;;;2.95;100.00;98627.78;5093557;28;20249;-79
2022/12/20 03:00:21;;;;;;;19.60;14.13;;;;;;;2.98;100.00;98617.25;5092505;28;20249;-79
2022/12/20 03:05:36;;;;;;;23.27;15.70;;;;;;;3.06;100.00;98615.25;5093434;28;20202;-79
2022/12/20 03:08:02;;;;;;;18.20;13.63;;;;;;;3.14;100.00;98609.78;5093328;28;20217;-80
2022/12/20 03:10:29;;;;;;;19.57;13.33;;;;;;;3.19;100.00;98610.50;5092830;28;20218;-79
2022/12/20 03:12:55;;;;;;;20.80;13.77;;;;;;;3.21;100.00;98609.53;5093098;28;20233;-79
2022/12/20 03:15:23;;;;;;;19.13;13.83;;;;;;;3.24;100.00;98598.16;5093037;28;20210;-79
2022/12/20 03:17:49;;;;;;;20.90;13.60;;;;;;;3.31;100.00;98602.25;5093463;28;20230;-80
2022/12/20 03:20:16;;;;;;;20.73;13.57;;;;;;;3.32;100.00;98606.56;5092587;28;20231;-78
2022/12/20 03:22:42;;;;;;;20.43;14.40;;;;;;;3.33;100.00;98608.28;5092802;28;20251;-80
2022/12/20 03:25:09;;;;;;;18.57;13.33;;;;;;;3.39;100.00;98602.84;5092719;28;20215;-80
2022/12/20 03:27:36;;;;;;;18.93;13.33;;;;;;;3.50;100.00;98596.38;5092792;28;20206;-79
2022/12/20 03:30:02;;;;;;;20.63;13.00;;;;;;;3.52;100.00;98594.56;5092581;28;20208;-79
2022/12/20 03:32:30;;;;;;;20.63;13.43;;;;;;;3.54;100.00;98603.19;5092729;28;20238;-79
2022/12/20 03:34:57;;;;;;;22.50;15.07;;;;;;;3.61;100.00;98583.78;5092672;28;20214;-79
2022/12/20 03:37:23;;;;;;;20.33;13.10;;;;;;;3.56;100.00;98590.06;5092792;28;20574;-78
2022/12/20 03:39:50;;;;;;;21.30;13.77;;;;;;;3.56;100.00;98580.47;5092049;28;20226;-79
2022/12/20 03:42:16;;;;;;;19.30;13.87;;;;;;;3.57;100.00;98571.75;5092693;28;20227;-79
2022/12/20 03:44:43;;;;;;;17.43;12.97;;;;;;;3.58;100.00;98602.19;5092427;28;20203;-79
2022/12/20 03:47:09;;;;;;;19.37;13.20;;;;;;;3.66;100.00;98589.69;5092540;28;20222;-80
2022/12/20 03:49:37;;;;;;;17.73;12.23;;;;;;;3.65;100.00;98590.63;5092145;28;20215;-79
2022/12/20 03:52:04;;;;;;;17.17;11.93;;;;;;;3.73;100.00;98593.81;5092291;28;20227;-79
2022/12/20 03:54:31;;;;;;;15.63;10.83;;;;;;;3.77;100.00;98589.31;5092011;28;20240;-80
2022/12/20 03:56:57;;;;;;;17.10;11.87;;;;;;;3.82;100.00;98582.19;5092367;28;20217;-80
2022/12/20 03:59:24;;;;;;;18.13;12.20;;;;;;;3.88;100.00;98567.13;5091872;28;20226;-80
2022/12/20 04:01:50;;;;;;;18.33;11.50;;;;;;;3.88;100.00;98568.88;5092074;28;20226;-79
2022/12/20 04:04:17;;;;;;;16.57;11.17;;;;;;;3.89;100.00;98561.00;5092167;28;20218;-79
2022/12/20 04:06:44;;;;;;;19.10;12.40;;;;;;;3.92;100.00;98562.66;5092119;28;20230;-80
2022/12/20 04:09:11;;;;;;;14.87;10.77;;;;;;;3.96;100.00;98564.22;5091555;28;20203;-80
2022/12/20 04:11:38;;;;;;;16.30;11.80;;;;;;;4.02;100.00;98557.03;5091469;28;20211;-80
2022/12/20 04:14:05;;;;;;;15.57;11.43;;;;;;;4.01;100.00;98560.56;5091676;28;20204;-79
2022/12/20 04:16:32;;;;;;;17.23;11.60;;;;;;;4.04;100.00;98556.97;5091997;28;20215;-80
2022/12/20 04:18:58;;;;;;;17.37;12.30;;;;;;;4.06;100.00;98556.00;5091483;28;20337;-81
2022/12/20 04:21:28;;;;;;;17.53;11.40;;;;;;;4.04;100.00;98541.28;5091815;28;20206;-80
2022/12/20 04:23:56;;;;;;;16.30;11.27;;;;;;;4.02;100.00;98543.06;5091622;28;20203;-80
2022/12/20 04:26:23;;;;;;;17.53;11.87;;;;;;;4.02;100.00;98549.19;5091749;28;20246;-79
2022/12/20 04:28:49;;;;;;;16.47;11.93;;;;;;;4.05;100.00;98540.38;5091504;28;20230;-79
2022/12/20 04:31:16;;;;;;;15.90;11.20;;;;;;;4.07;100.00;98562.94;5091656;28;20210;-79
2022/12/20 04:33:42;;;;;;;15.13;11.07;;;;;;;4.08;100.00;98553.31;5091606;28;20227;-80
2022/12/20 04:36:09;;;;;;;15.27;11.20;;;;;;;4.11;100.00;98559.31;5091499;28;20224;-80
2022/12/20 04:38:36;;;;;;;15.87;10.53;;;;;;;4.11;100.00;98564.56;5091540;28;20218;-79
2022/12/20 04:41:04;;;;;;;15.80;10.70;;;;;;;4.19;100.00;98552.03;5091458;28;20203;-78
2022/12/20 04:43:30;;;;;;;17.77;10.37;;;;;;;4.17;100.00;98540.75;5091584;28;20234;-80
2022/12/20 04:45:57;;;;;;;15.70;11.10;;;;;;;4.17;100.00;98535.50;5091681;28;20576;-80
2022/12/20 04:48:26;;;;;;;17.07;11.60;;;;;;;4.11;100.00;98527.94;5091432;28;20288;-79
2022/12/20 04:50:54;;;;;;;16.07;10.37;;;;;;;4.08;100.00;98530.66;5090985;28;20233;-80
2022/12/20 04:56:07;;;;;;;16.43;10.50;;;;;;;4.02;100.00;98533.50;5091570;28;20291;-81
2022/12/20 04:58:33;;;;;;;16.80;10.73;;;;;;;4.03;100.00;98523.88;5091348;28;20207;-80
2022/12/20 05:01:00;;;;;;;14.03;10.00;;;;;;;4.04;100.00;98525.59;5090943;28;20541;-80
2022/12/20 05:03:27;;;;;;;15.07;10.57;;;;;;;4.05;100.00;98519.44;5091491;28;20234;-80
2022/12/20 05:05:53;;;;;;;16.60;10.83;;;;;;;4.05;100.00;98520.31;5091236;28;20693;-79
2022/12/20 05:08:20;;;;;;;17.23;11.23;;;;;;;4.16;100.00;98530.38;5091325;28;20203;-79
2022/12/20 05:10:48;;;;;;;16.27;11.23;;;;;;;4.27;100.00;98513.34;5090941;28;20207;-80
2022/12/20 05:13:16;;;;;;;14.70;10.43;;;;;;;4.24;100.00;98502.13;5091235;28;20751;-79
2022/12/20 05:15:43;;;;;;;13.73;9.80;;;;;;;4.17;100.00;98495.44;5091131;28;20794;-79
2022/12/20 05:18:10;;;;;;;15.17;10.43;;;;;;;4.12;100.00;98500.84;5091387;28;20220;-79
2022/12/20 05:20:36;;;;;;;13.03;9.30;;;;;;;4.16;100.00;98502.44;5090883;28;20227;-79
2022/12/20 05:28:42;;;;;;;15.47;10.00;;;;;;;4.21;100.00;98492.66;5049705;28;20601;-80
2022/12/20 05:31:09;;;;;;;15.80;10.83;;;;;;;4.26;100.00;98482.88;5074673;28;20227;-80
2022/12/20 05:33:35;;;;;;;14.77;9.57;;;;;;;4.25;100.00;98483.78;5074922;28;20227;-80
2022/12/20 05:36:02;;;;;;;17.03;10.83;;;;;;;4.21;100.00;98491.81;5074593;28;20590;-80
2022/12/20 05:38:28;;;;;;;13.67;9.23;;;;;;;4.24;100.00;98503.00;5074492;28;20690;-79
2022/12/20 05:40:55;;;;;;;14.27;9.70;;;;;;;4.32;100.00;98493.09;5074339;28;20254;-80
2022/12/20 05:43:21;;;;;;;14.70;10.07;;;;;;;4.27;100.00;98481.94;5074587;28;20230;-80
2022/12/20 05:45:51;;;;;;;13.53;8.93;;;;;;;4.27;100.00;98484.56;5074486;28;20212;-78
2022/12/20 05:48:20;;;;;;;14.37;9.07;;;;;;;4.24;100.00;98503.00;5074409;28;20588;-78
2022/12/20 05:50:47;;;;;;;14.70;9.50;;;;;;;4.19;100.00;98494.47;5073965;28;20205;-79
2022/12/20 05:53:15;;;;;;;12.77;9.47;;;;;;;4.17;100.00;98484.97;5074265;28;20248;-80
2022/12/20 05:55:43;;;;;;;20.27;11.43;;;;;;;4.12;100.00;98476.44;5074449;28;20205;-79
2022/12/20 05:58:12;;;;;;;14.97;10.77;;;;;;;4.06;100.00;98464.47;5074331;28;20206;-81
2022/12/20 06:00:39;;;;;;;15.87;11.03;;;;;;;4.03;100.00;98469.81;5073734;28;20271;-79
2022/12/20 06:03:08;;;;;;;14.97;10.77;;;;;;;4.03;100.00;98471.59;5074036;28;20239;-79
2022/12/20 06:05:35;;;;;;;13.50;10.30;;;;;;;4.05;100.00;98475.84;5073990;28;20295;-79
2022/12/20 06:08:02;;;;;;;13.40;9.17;;;;;;;4.13;100.00;98479.00;5073865;28;20199;-81
2022/12/20 06:10:28;;;;;;;14.40;9.73;;;;;;;4.18;100.00;98479.69;5073593;28;20210;-81
2022/12/20 06:12:55;;;;;;;14.70;9.97;;;;;;;4.28;100.00;98483.66;5073861;28;20235;-79
2022/12/20 06:15:21;;;;;;;13.50;9.20;;;;;;;4.23;100.00;98485.59;5073912;28;20219;-81
2022/12/20 06:17:47;;;;;;;14.30;9.40;;;;;;;4.24;100.00;98487.31;5074011;28;20211;-80
2022/12/20 06:20:15;;;;;;;12.23;9.33;;;;;;;4.30;100.00;98487.06;5073281;28;20231;-79
2022/12/20 06:22:42;;;;;;;13.93;9.83;;;;;;;4.33;100.00;98479.09;5073684;28;20263;-79
2022/12/20 06:25:09;;;;;;;10.97;8.43;;;;;;;4.27;100.00;98473.25;5073746;28;20230;-81
2022/12/20 06:27:36;;;;;;;12.50;8.57;;;;;;;4.19;100.00;98468.31;5073617;28;20208;-81
2022/12/20 06:30:03;;;;;;;14.90;9.33;;;;;;;4.22;100.00;98478.66;5073407;28;20215;-81
2022/12/20 06:32:29;;;;;;;12.43;9.20;;;;;;;4.17;100.00;98470.13;5073542;28;20242;-81
2022/12/20 06:34:56;;;;;;;11.40;8.73;;;;;;;4.17;100.00;98474.53;5072727;28;20216;-81
2022/12/20 06:37:23;;;;;;;12.63;8.57;;;;;;;4.19;100.00;98486.63;5073794;28;20207;-81
2022/12/20 06:39:50;;;;;;;21.67;14.77;;;;;;;4.21;100.00;98479.56;5073259;28;20235;-81
2022/12/20 06:42:16;;;;;;;16.87;11.23;;;;;;;4.27;100.00;98489.78;5073440;28;20227;-81
2022/12/20 06:44:43;;;;;;;14.10;9.73;;;;;;;4.31;100.00;98488.78;5073638;28;20586;-80
2022/12/20 06:47:09;;;;;;;11.50;8.70;;;;;;;4.32;100.00;98494.84;5073334;28;20239;-81
2022/12/20 06:49:36;;;;;;;13.27;10.03;;;;;;;4.40;100.00;98488.41;5073040;28;20210;-80
2022/12/20 06:52:03;;;;;;;11.97;9.40;;;;;;;4.44;100.00;98482.16;5073677;28;20212;-81
2022/12/20 06:54:31;;;;;;;15.90;9.97;;;;;;;4.41;100.00;98482.25;5073210;28;20327;-80
2022/12/20 06:56:57;;;;;;;14.47;10.03;;;;;;;4.37;100.00;98483.31;5072954;28;20710;-80
2022/12/20 06:59:24;;;;;;;15.83;10.00;;;;;;;4.32;100.00;98485.25;5072692;28;20236;-80
2022/12/20 07:01:50;;;;;;;13.40;8.97;;;;;;;4.29;100.00;98494.97;5072813;28;20204;-80
2022/12/20 07:04:17;;;;;;;11.80;8.03;;;;;;;4.29;100.00;98480.13;5072992;28;20731;-80
2022/12/20 07:06:43;;;;;;;13.40;9.13;;;;;;;4.31;100.00;98466.97;5073105;28;20587;-80
2022/12/20 07:09:10;;;;;;;13.63;8.53;;;;;;;4.26;100.00;98469.78;5072627;28;20223;-80
2022/12/20 07:11:38;;;;;;;11.93;8.23;;;;;;;4.16;100.00;98476.25;5072855;28;20674;-80
2022/12/20 07:14:05;;;;;;;14.70;9.57;;;;;;;4.07;100.00;98474.03;5072769;28;20247;-83
2022/12/20 07:16:32;;;;;;;14.40;8.77;;;;;;;3.95;100.00;98476.22;5072721;28;20208;-77
2022/12/20 07:18:58;;;;;;;13.20;9.13;;;;;;;3.90;100.00;98479.03;5072434;28;20671;-77
2022/12/20 07:21:24;;;;;;;13.37;8.97;;;;;;;3.92;100.00;98478.97;5072692;28;20235;-78
2022/12/20 07:23:51;;;;;;;14.03;9.37;;;;;;;3.97;100.00;98483.13;5072349;28;20231;-79
2022/12/20 07:26:17;;;;;;;13.60;8.83;;;;;;;3.94;100.00;98472.78;5072469;28;20702;-79
2022/12/20 07:28:46;;;;;;;11.93;8.57;;;;;;;3.92;100.00;98473.75;5072349;28;20211;-79
2022/12/20 07:31:12;;;;;;;16.50;9.83;;;;;;;3.91;100.00;98472.88;5072283;28;20208;-78
2022/12/20 07:33:39;;;;;;;14.63;9.70;;;;;;;3.83;100.00;98472.31;5072555;28;20224;-80
2022/12/20 07:36:09;;;;;;;13.43;9.03;;;;;;;3.80;100.00;98469.81;5072385;28;20210;-80
2022/12/20 07:38:37;;;;;;;13.23;9.23;;;;;;;3.83;100.00;98468.84;5072454;28;20226;-79
2022/12/20 07:41:07;;;;;;;13.93;10.07;;;;;;;3.76;100.00;98468.25;5071926;28;20238;-79
2022/12/20 07:43:34;;;;;;;16.37;11.20;;;;;;;3.80;100.00;98468.97;5072579;28;20615;-80
2022/12/20 07:46:02;;;;;;;15.60;11.17;;;;;;;3.81;100.00;98476.75;5072256;28;20207;-80
2022/12/20 07:48:28;;;;;;;16.23;11.03;;;;;;;3.81;100.00;98461.09;5072455;28;20234;-79
2022/12/20 07:50:59;;;;;;;16.13;10.53;;;;;;;3.78;100.00;98465.56;5071952;28;20207;-79
2022/12/20 07:53:28;;;;;;;15.10;10.43;;;;;;;3.74;100.00;98463.97;5072060;28;20832;-80
2022/12/20 07:55:56;;;;;;;15.67;10.23;;;;;;;3.83;100.00;98474.06;5072050;28;20214;-80
2022/12/20 07:58:23;;;;;;;15.93;10.93;;;;;;;3.87;100.00;98476.53;5072285;28;20208;-79
2022/12/20 08:00:50;;;;;;;14.30;10.17;;;;;;;3.92;100.00;98478.97;5072062;28;20258;-79
2022/12/20 08:03:20;;;;;;;15.20;10.03;;;;;;;3.94;100.00;98488.47;5072016;28;20597;-79
2022/12/20 08:05:51;;;;;;;13.33;9.50;;;;;;;4.10;100.00;98489.56;5071959;28;20211;-79
2022/12/20 08:08:18;;;;;;;16.33;9.83;;;;;;;4.21;100.00;98487.41;5071821;28;20223;-80
2022/12/20 08:10:45;;;;;;;12.57;8.63;;;;;;;4.27;100.00;98486.34;5071526;28;20211;-81
2022/12/20 08:13:12;;;;;;;13.33;8.93;;;;;;;4.37;100.00;98478.06;5071968;28;20255;-80
2022/12/20 08:15:39;;;;;;;11.67;8.73;;;;;;;4.50;100.00;98479.28;5071923;28;20217;-81
2022/12/20 08:18:06;;;;;;;12.63;8.67;;;;;;;4.65;100.00;98473.44;5071855;28;20683;-82
2022/12/20 08:20:35;;;;;;;11.93;8.13;;;;;;;4.81;100.00;98464.03;5071645;28;20228;-82
2022/12/20 08:23:03;;;;;;;13.83;8.63;;;;;;;4.88;100.00;98449.78;5071376;28;20239;-81
2022/12/20 08:25:29;;;;;;;9.87;7.90;;;;;;;4.97;100.00;98451.16;5071619;28;20220;-82
2022/12/20 08:27:56;;;;;;;11.43;7.57;;;;;;;4.99;100.00;98442.34;5071621;28;20217;-85
2022/12/20 08:30:22;;;;;;;9.60;7.40;;;;;;;5.11;100.00;98439.19;5071331;28;20204;-85
2022/12/20 08:32:49;;;;;;;10.73;7.17;;;;;;;5.23;100.00;98420.31;5071639;28;20235;-83
2022/12/20 08:35:15;;;;;;;10.60;7.03;;;;;;;5.19;100.00;98416.13;5071546;28;20227;-81
2022/12/20 08:37:43;;;;;;;11.87;8.33;;;;;;;5.13;100.00;98408.53;5071283;28;20205;-82
2022/12/20 08:40:11;;;;;;;12.63;8.17;;;;;;;4.94;100.00;98412.84;5071274;28;20240;-85
2022/12/20 08:42:37;;;;;;;14.07;8.83;;;;;;;4.81;100.00;98416.91;5071499;28;20235;-83
2022/12/20 08:45:05;;;;;;;12.37;9.90;;;;;;;4.76;100.00;98412.81;5068833;28;20430;-83
2022/12/20 08:47:31;;;;;;;11.27;8.67;;;;;;;4.73;100.00;98413.78;5069859;28;20211;-82
2022/12/20 08:49:58;;;;;;;11.77;8.13;;;;;;;4.78;100.00;98424.91;5070719;28;20700;-80
2022/12/20 08:52:24;;;;;;;17.63;8.17;;;;;;;5.04;100.00;98418.56;5071072;28;20604;-84
2022/12/20 08:54:52;;;;;;;10.87;8.10;;;;;;;5.13;100.00;98421.63;5071458;28;20209;-79
2022/12/20 08:57:18;;;;;;;11.80;7.23;;;;;;;5.32;100.00;98409.44;5071309;28;20702;-80
2022/12/20 08:59:45;;;;;;;9.00;6.83;;;;;;;5.39;100.00;98410.88;5070950;28;20220;-81
2022/12/20 09:02:11;;;;;;;7.83;6.27;;;;;;;5.48;100.00;98410.47;5071237;28;20604;-80
2022/12/20 09:04:38;;;;;;;7.13;5.80;;;;;;;5.56;100.00;98408.34;5071432;28;20208;-80
2022/12/20 09:07:04;;;;;;;8.30;6.07;;;;;;;5.63;100.00;98403.69;5071135;28;20231;-79
2022/12/20 09:09:31;;;;;;;8.03;6.30;;;;;;;5.75;100.00;98388.22;5071351;28;20212;-80
2022/12/20 09:11:59;;;;;;;8.50;6.20;;;;;;;5.83;100.00;98401.91;5071732;28;20284;-79
2022/12/20 09:14:25;;;;;;;7.87;6.07;;;;;;;5.90;100.00;98391.94;5071217;28;20216;-79
2022/12/20 09:16:52;;;;;;;9.60;6.47;;;;;;;5.88;100.00;98394.66;5071342;28;20209;-79
2022/12/20 09:19:18;;;;;;;7.77;6.10;;;;;;;5.95;100.00;98379.47;5071108;28;20213;-79
2022/12/20 09:21:45;;;;;;;7.23;6.13;;;;;;;6.09;100.00;98370.03;5071321;28;20238;-79
2022/12/20 09:24:11;;;;;;;9.30;6.90;;;;;;;6.10;100.00;98368.28;5070981;28;20221;-80
2022/12/20 09:26:39;;;;;;;8.77;6.57;;;;;;;6.09;100.00;98369.19;5071377;28;20223;-80
2022/12/20 09:29:07;;;;;;;9.50;7.20;;;;;;;6.04;100.00;98368.56;5070782;28;20221;-79
2022/12/20 09:31:33;;;;;;;9.90;7.10;;;;;;;6.03;100.00;98385.19;5071060;28;20200;-79
2022/12/20 09:34:00;;;;;;;8.83;6.27;;;;;;;6.02;100.00;98387.00;5070812;28;20713;-80
2022/12/20 09:36:29;;;;;;;9.80;6.70;;;;;;;6.06;100.00;98390.31;5070835;28;20221;-79
2022/12/20 09:38:56;;;;;;;11.00;7.53;;;;;;;6.12;100.00;98392.66;5071115;28;20619;-80
2022/12/20 09:41:28;;;;;;;9.33;6.60;;;;;;;6.14;100.00;98391.66;5070928;28;20236;-80
2022/12/20 09:43:55;;;;;;;9.67;6.73;;;;;;;6.22;100.00;98379.03;5070887;28;20237;-80
2022/12/20 09:46:25;;;;;;;12.40;7.00;;;;;;;6.26;100.00;98364.84;5070808;28;20217;-80
2022/12/20 09:48:52;;;;;;;9.23;6.57;;;;;;;6.22;100.00;98358.03;5070840;28;20233;-80
2022/12/20 09:51:34;;;;;;;8.40;6.67;;;;;;;6.10;100.00;98363.84;5071412;28;20214;-80
2022/12/20 09:54:12;;;;;;;10.70;6.43;;;;;;;6.22;100.00;98362.44;5070958;28;20237;-80
2022/12/20 09:56:44;;;;;;;8.30;6.10;;;;;;;6.25;100.00;98368.38;5070875;28;20213;-80
2022/12/20 09:59:13;;;;;;;8.70;6.70;;;;;;;6.37;100.00;98354.66;5070072;28;20264;-80
2022/12/20 10:01:44;;;;;;;8.20;6.50;;;;;;;6.37;100.00;98336.28;5070540;28;20230;-80
2022/12/20 10:04:23;;;;;;;8.70;6.13;;;;;;;6.36;100.00;98329.31;5070703;28;20211;-80
2022/12/20 10:07:10;;;;;;;7.60;5.77;;;;;;;6.31;100.00;98326.09;5070677;28;20570;-79
2022/12/20 10:09:49;;;;;;;7.77;5.20;;;;;;;6.29;100.00;98333.19;5070358;28;20222;-80
2022/12/20 10:12:28;;;;;;;7.27;5.90;;;;;;;6.29;100.00;98338.44;5074130;28;20247;-79
2022/12/20 10:15:12;;;;;;;8.17;5.80;;;;;;;6.32;100.00;98330.41;5074202;28;20214;-79
2022/12/20 10:17:50;;;;;;;6.33;5.03;;;;;;;6.29;100.00;98342.84;5074083;28;20585;-80
2022/12/20 10:20:31;;;;;;;7.83;5.90;;;;;;;6.40;100.00;98341.38;5073884;28;20214;-80
2022/12/20 10:23:04;;;;;;;6.93;5.73;;;;;;;6.46;100.00;98334.97;5073954;28;20232;-80
2022/12/20 10:25:32;;;;;;;6.50;5.00;;;;;;;6.42;100.00;98339.53;5073794;28;20605;-80
2022/12/20 10:28:02;;;;;;;7.53;5.30;;;;;;;6.49;100.00;98351.44;5073817;28;20210;-79
2022/12/20 10:30:29;;;;;;;9.40;5.20;;;;;;;6.56;100.00;98336.22;5073415;28;20220;-80
2022/12/20 10:32:58;;;;;;;5.80;4.63;;;;;;;6.64;100.00;98329.66;5073978;28;20664;-80
2022/12/20 10:35:27;;;;;;;6.40;4.83;;;;;;;6.77;100.00;98333.34;5073676;28;20227;-80
2022/12/20 10:38:03;;;;;;;7.20;5.20;;;;;;;6.90;100.00;98337.06;5073551;28;20701;-80
2022/12/20 10:40:31;;;;;;;8.07;5.20;;;;;;;7.01;100.00;98326.00;5073118;28;20674;-80
2022/12/20 10:42:58;;;;;;;8.43;4.83;;;;;;;7.05;100.00;98307.38;5073268;28;20234;-80
2022/12/20 10:45:32;;;;;;;7.50;5.27;;;;;;;7.09;100.00;98289.66;5073432;28;20705;-80
2022/12/20 10:48:02;;;;;;;6.43;4.70;;;;;;;7.08;100.00;98296.69;5073371;28;20207;-80
2022/12/20 10:50:29;;;;;;;7.07;5.10;;;;;;;7.06;100.00;98295.94;5073191;28;20211;-80
2022/12/20 10:53:21;;;;;;;7.67;4.50;;;;;;;7.06;100.00;98305.56;5073295;28;20274;-80
2022/12/20 10:55:48;;;;;;;6.77;4.83;;;;;;;7.03;100.00;98301.31;5058683;28;20210;-79
2022/12/20 10:58:17;;;;;;;6.47;5.00;;;;;;;7.07;100.00;98297.63;5073146;28;20210;-80
2022/12/20 11:00:45;;;;;;;6.67;4.73;;;;;;;7.07;100.00;98287.09;5072947;28;20211;-80
2022/12/20 11:03:18;;;;;;;6.70;4.60;;;;;;;7.14;100.00;98288.47;5073025;28;20240;-80
2022/12/20 11:05:57;;;;;;;6.87;4.70;;;;;;;7.15;100.00;98286.72;5073164;28;20685;-80
2022/12/20 11:08:25;;;;;;;5.73;4.70;;;;;;;7.30;98.82;98260.44;5073157;28;20299;-79
2022/12/20 11:11:11;;;;;;;5.23;4.20;;;;;;;7.21;98.39;98253.03;5073009;28;20214;-80
2022/12/20 11:13:38;;;;;;;5.97;5.03;;;;;;;7.17;99.60;98267.31;5073047;28;20227;-80
2022/12/20 11:16:05;;;;;;;5.97;4.53;;;;;;;7.16;100.00;98273.50;5072815;28;20674;-80
2022/12/20 11:18:44;;;;;;;6.57;4.97;;;;;;;7.19;100.00;98275.94;5072977;28;20209;-80
2022/12/20 11:21:22;;;;;;;6.13;4.77;;;;;;;7.19;100.00;98275.94;5072392;28;20296;-80
2022/12/20 11:23:57;;;;;;;8.27;5.20;;;;;;;7.22;100.00;98270.53;5077446;22;20274;-82
2022/12/20 11:26:39;;;;;;;6.70;4.83;;;;;;;7.24;100.00;98252.91;5052691;28;20211;-83
2022/12/20 11:29:21;;;;;;;8.00;5.33;;;;;;;7.33;100.00;98263.75;5052652;28;20215;-83
2022/12/20 11:31:56;;;;;;;8.77;5.77;;;;;;;7.39;100.00;98241.53;5052772;28;20215;-81
2022/12/20 11:34:37;;;;;;;7.00;5.03;;;;;;;7.37;100.00;98240.78;5052706;28;20223;-81
2022/12/20 11:37:13;;;;;;;6.83;4.97;;;;;;;7.30;100.00;98242.88;5052523;28;20595;-80
2022/12/20 11:39:49;;;;;;;7.20;5.87;;;;;;;7.35;99.29;98242.66;5051946;28;20218;-76